createdAt,value
2022-10-29T00:00:01.567Z,13.37
2022-10-29T00:02:35.850Z,13.16
2022-10-29T00:05:03.646Z,13.11
2022-10-29T00:07:30.992Z,13.51
2022-10-29T00:09:58.390Z,13.94
2022-10-29T00:12:26.016Z,14.00
2022-10-29T00:14:53.369Z,13.53
2022-10-29T00:17:20.728Z,13.31
2022-10-29T00:19:49.077Z,13.88
2022-10-29T00:22:16.413Z,13.96
2022-10-29T00:24:43.752Z,13.66
2022-10-29T00:27:11.348Z,13.83
2022-10-29T00:29:38.773Z,13.92
2022-10-29T00:32:06.213Z,13.48
2022-10-29T00:34:34.130Z,13.59
2022-10-29T00:37:01.519Z,13.90
2022-10-29T00:39:29.602Z,14.41
2022-10-29T00:41:57.560Z,14.77
2022-10-29T00:44:27.862Z,14.62
2022-10-29T00:47:17.941Z,14.31
2022-10-29T00:49:47.870Z,14.40
2022-10-29T00:52:15.773Z,14.74
2022-10-29T00:54:44.761Z,14.85
2022-10-29T00:57:25.350Z,14.55
2022-10-29T00:59:53.111Z,14.20
2022-10-29T01:02:21.986Z,14.82
2022-10-29T01:04:50.618Z,15.22
2022-10-29T01:07:17.984Z,15.35
2022-10-29T01:09:45.695Z,15.28
2022-10-29T01:12:18.997Z,15.24
2022-10-29T01:15:19.024Z,15.12
2022-10-29T01:17:52.432Z,14.85
2022-10-29T01:20:49.917Z,14.54
2022-10-29T01:23:48.146Z,13.79
2022-10-29T01:26:40.433Z,13.54
2022-10-29T01:29:26.404Z,13.53
2022-10-29T01:32:12.671Z,13.30
2022-10-29T01:34:43.800Z,13.14
2022-10-29T01:37:47.838Z,13.05
2022-10-29T01:40:25.091Z,13.06
2022-10-29T01:43:04.468Z,12.76
2022-10-29T01:45:36.567Z,12.64
2022-10-29T01:48:30.539Z,12.81
2022-10-29T01:51:04.985Z,13.67
2022-10-29T01:53:35.188Z,13.69
2022-10-29T01:56:02.531Z,12.96
2022-10-29T01:58:30.467Z,12.31
2022-10-29T02:01:14.799Z,12.75
2022-10-29T02:03:45.114Z,12.74
2022-10-29T02:06:26.758Z,12.88
2022-10-29T02:09:17.227Z,13.41
2022-10-29T02:11:49.473Z,13.55
2022-10-29T02:14:28.097Z,13.45
2022-10-29T02:16:56.107Z,13.22
2022-10-29T02:19:23.750Z,13.35
2022-10-29T02:21:51.346Z,13.50
2022-10-29T02:24:18.689Z,13.86
2022-10-29T02:26:46.296Z,13.65
2022-10-29T02:29:13.665Z,13.70
2022-10-29T02:31:41.009Z,13.43
2022-10-29T02:34:08.777Z,13.52
2022-10-29T02:36:36.135Z,13.66
2022-10-29T02:39:03.820Z,13.89
2022-10-29T02:41:31.438Z,14.64
2022-10-29T02:43:58.866Z,14.20
2022-10-29T02:46:26.253Z,13.59
2022-10-29T02:48:53.882Z,13.57
2022-10-29T02:51:21.242Z,13.93
2022-10-29T02:53:48.566Z,13.32
2022-10-29T02:56:16.166Z,13.17
2022-10-29T02:58:43.499Z,13.36
2022-10-29T03:01:10.972Z,13.70
2022-10-29T03:03:38.671Z,13.51
2022-10-29T03:06:12.643Z,13.72
2022-10-29T03:08:40.366Z,14.07
2022-10-29T03:11:08.061Z,14.09
2022-10-29T03:13:35.415Z,13.50
2022-10-29T03:16:03.334Z,13.55
2022-10-29T03:18:30.692Z,13.98
2022-10-29T03:20:58.108Z,13.87
2022-10-29T03:23:25.725Z,14.01
2022-10-29T03:25:56.023Z,13.99
2022-10-29T03:28:25.093Z,14.15
2022-10-29T03:30:52.759Z,14.29
2022-10-29T03:33:20.106Z,14.14
2022-10-29T03:35:47.482Z,13.80
2022-10-29T03:38:15.073Z,13.20
2022-10-29T03:40:42.900Z,12.50
2022-10-29T03:43:10.269Z,12.37
2022-10-29T03:45:37.857Z,12.56
2022-10-29T03:48:05.528Z,12.78
2022-10-29T03:50:32.913Z,12.46
2022-10-29T03:53:00.491Z,12.21
2022-10-29T03:55:29.215Z,12.00
2022-10-29T03:57:56.928Z,12.09
2022-10-29T04:00:24.850Z,12.47
2022-10-29T04:02:52.554Z,12.61
2022-10-29T04:05:19.953Z,12.64
2022-10-29T04:07:47.318Z,12.39
2022-10-29T04:10:14.932Z,12.33
2022-10-29T04:12:46.551Z,12.62
2022-10-29T04:15:13.980Z,12.54
2022-10-29T04:17:41.608Z,12.99
2022-10-29T04:20:19.113Z,13.03
2022-10-29T04:26:48.083Z,13.48
2022-10-29T04:28:43.623Z,12.88
2022-10-29T04:31:12.377Z,13.03
2022-10-29T04:33:39.769Z,13.40
2022-10-29T04:36:07.890Z,14.13
2022-10-29T04:38:35.278Z,14.89
2022-10-29T04:41:03.013Z,14.51
2022-10-29T04:43:30.875Z,14.38
2022-10-29T04:45:59.369Z,14.41
2022-10-29T04:48:27.891Z,14.29
2022-10-29T04:50:55.540Z,14.26
2022-10-29T04:53:23.042Z,14.21
2022-10-29T04:55:50.838Z,13.95
2022-10-29T04:58:19.737Z,14.14
2022-10-29T05:00:47.219Z,13.65
2022-10-29T05:03:14.675Z,13.30
2022-10-29T05:05:42.614Z,12.75
2022-10-29T05:08:11.089Z,12.55
2022-10-29T05:10:39.672Z,12.66
2022-10-29T05:13:11.838Z,12.60
2022-10-29T05:15:39.903Z,13.06
2022-10-29T05:18:09.043Z,12.53
2022-10-29T05:20:36.478Z,12.05
2022-10-29T05:23:06.083Z,12.26
2022-10-29T05:25:36.609Z,12.17
2022-10-29T05:28:09.735Z,12.20
2022-10-29T05:30:37.800Z,12.34
2022-10-29T05:33:09.296Z,12.35
2022-10-29T05:35:36.906Z,12.03
2022-10-29T05:38:05.072Z,12.50
2022-10-29T05:40:32.966Z,12.22
2022-10-29T05:43:01.060Z,12.10
2022-10-29T05:45:28.712Z,12.27
2022-10-29T05:48:00.417Z,12.60
2022-10-29T05:50:29.003Z,12.14
2022-10-29T05:53:10.475Z,12.15
2022-10-29T05:55:38.300Z,11.70
2022-10-29T05:58:07.948Z,11.87
2022-10-29T06:00:37.436Z,11.94
2022-10-29T06:03:14.997Z,12.10
2022-10-29T06:05:42.639Z,12.06
2022-10-29T06:08:10.590Z,11.80
2022-10-29T06:10:38.052Z,12.69
2022-10-29T06:13:31.681Z,12.98
2022-10-29T06:16:00.045Z,13.19
2022-10-29T06:18:27.728Z,12.27
2022-10-29T06:20:57.351Z,12.47
2022-10-29T06:23:25.311Z,12.56
2022-10-29T06:25:53.132Z,13.02
2022-10-29T06:28:20.563Z,13.88
2022-10-29T06:30:49.967Z,13.04
2022-10-29T06:33:20.769Z,12.61
2022-10-29T06:35:48.836Z,12.46
2022-10-29T06:38:16.225Z,12.73
2022-10-29T06:40:43.746Z,12.20
2022-10-29T06:43:12.383Z,12.53
2022-10-29T06:45:39.968Z,12.34
2022-10-29T06:48:07.521Z,12.18
2022-10-29T06:50:35.166Z,12.31
2022-10-29T06:53:04.750Z,12.39
2022-10-29T06:55:33.835Z,11.92
2022-10-29T06:58:03.293Z,11.90
2022-10-29T07:00:31.631Z,11.41
2022-10-29T07:02:59.624Z,11.57
2022-10-29T07:05:27.887Z,11.58
2022-10-29T07:07:57.143Z,12.22
2022-10-29T07:10:26.275Z,11.74
2022-10-29T07:12:53.926Z,11.68
2022-10-29T07:15:25.651Z,11.89
2022-10-29T07:18:06.108Z,11.86
2022-10-29T07:20:36.312Z,11.97
2022-10-29T07:23:04.417Z,11.97
2022-10-29T07:25:32.501Z,12.13
2022-10-29T07:28:12.766Z,12.18
2022-10-29T07:30:40.735Z,12.58
2022-10-29T07:33:08.712Z,13.35
2022-10-29T07:35:36.763Z,13.94
2022-10-29T07:38:10.398Z,14.26
2022-10-29T07:40:39.841Z,14.84
2022-10-29T07:43:07.629Z,14.58
2022-10-29T07:45:34.999Z,14.44
2022-10-29T07:48:05.071Z,14.09
2022-10-29T07:50:32.763Z,13.88
2022-10-29T07:53:01.144Z,14.04
2022-10-29T07:58:01.464Z,13.03
2022-10-29T08:00:29.927Z,12.61
2022-10-29T08:02:57.931Z,13.08
2022-10-29T08:05:26.340Z,14.01
2022-10-29T08:07:55.522Z,13.94
2022-10-29T08:10:24.450Z,13.86
2022-10-29T08:12:56.991Z,12.54
2022-10-29T08:15:26.036Z,12.88
2022-10-29T08:17:53.858Z,13.20
2022-10-29T08:20:21.927Z,13.06
2022-10-29T08:22:49.587Z,13.15
2022-10-29T08:25:18.047Z,13.48
2022-10-29T08:27:45.507Z,13.52
2022-10-29T08:30:14.552Z,13.01
2022-10-29T08:32:46.653Z,13.30
2022-10-29T08:35:14.625Z,14.20
2022-10-29T08:37:45.451Z,14.17
2022-10-29T08:40:51.629Z,14.20
2022-10-29T08:43:54.404Z,14.50
2022-10-29T08:46:35.879Z,15.25
2022-10-29T08:49:05.220Z,14.02
2022-10-29T08:51:39.445Z,13.50
2022-10-29T08:54:29.960Z,13.26
2022-10-29T08:56:59.626Z,13.45
2022-10-29T08:59:29.832Z,12.92
2022-10-29T09:01:57.340Z,12.45
2022-10-29T09:04:35.306Z,12.15
2022-10-29T09:07:45.675Z,12.09
2022-10-29T09:10:27.822Z,12.31
2022-10-29T09:13:28.316Z,12.23
2022-10-29T09:16:29.579Z,12.84
2022-10-29T09:19:13.380Z,12.81
2022-10-29T09:21:59.882Z,12.86
2022-10-29T09:24:30.737Z,13.61
2022-10-29T09:27:18.972Z,13.87
2022-10-29T09:30:01.869Z,13.22
2022-10-29T09:32:43.332Z,12.74
2022-10-29T09:35:17.156Z,12.77
2022-10-29T09:37:55.073Z,13.18
2022-10-29T09:40:31.768Z,13.23
2022-10-29T09:43:00.694Z,13.37
2022-10-29T09:46:00.622Z,13.71
2022-10-29T09:48:36.974Z,13.27
2022-10-29T09:51:46.234Z,12.53
2022-10-29T09:54:13.685Z,12.74
2022-10-29T09:56:45.673Z,12.32
2022-10-29T09:59:41.125Z,12.45
2022-10-29T10:02:25.853Z,12.66
2022-10-29T10:04:57.050Z,12.59
2022-10-29T10:07:24.469Z,12.83
2022-10-29T10:10:01.794Z,13.14
2022-10-29T10:12:44.939Z,13.06
2022-10-29T10:15:24.075Z,13.65
2022-10-29T10:18:10.302Z,13.57
2022-10-29T10:20:40.552Z,13.25
2022-10-29T10:23:29.319Z,13.27
2022-10-29T10:26:02.043Z,13.27
2022-10-29T10:28:35.724Z,13.49
2022-10-29T10:31:12.068Z,13.30
2022-10-29T10:33:51.530Z,12.97
2022-10-29T10:36:21.780Z,13.21
2022-10-29T10:38:51.342Z,12.94
2022-10-29T10:41:25.271Z,13.12
2022-10-29T10:43:55.783Z,13.29
2022-10-29T10:46:25.461Z,12.93
2022-10-29T10:48:59.770Z,13.03
2022-10-29T10:51:32.209Z,13.07
2022-10-29T10:54:01.580Z,12.93
2022-10-29T10:56:29.686Z,12.85
2022-10-29T10:59:10.093Z,12.97
2022-10-29T11:01:41.831Z,12.99
2022-10-29T11:04:17.789Z,13.08
2022-10-29T11:06:48.770Z,13.06
2022-10-29T11:09:25.342Z,13.78
2022-10-29T11:12:06.713Z,13.54
2022-10-29T11:14:36.810Z,13.55
2022-10-29T11:17:07.368Z,13.95
2022-10-29T11:19:45.638Z,13.60
2022-10-29T11:22:19.037Z,13.56
2022-10-29T11:25:21.628Z,13.67
2022-10-29T11:27:55.508Z,14.13
2022-10-29T11:30:23.253Z,13.56
2022-10-29T11:32:59.074Z,13.02
2022-10-29T11:35:43.943Z,12.86
2022-10-29T11:38:22.703Z,13.58
2022-10-29T11:41:27.792Z,13.86
2022-10-29T11:43:55.417Z,13.51
2022-10-29T11:46:59.565Z,13.60
2022-10-29T11:49:43.619Z,13.73
2022-10-29T11:52:13.950Z,13.89
2022-10-29T11:55:06.767Z,13.66
2022-10-29T11:57:59.010Z,13.56
2022-10-29T12:00:31.941Z,13.37
2022-10-29T12:03:11.597Z,13.71
2022-10-29T12:05:50.686Z,13.72
2022-10-29T12:08:31.476Z,13.83
2022-10-29T12:10:58.744Z,14.39
2022-10-29T12:14:07.626Z,15.14
2022-10-29T12:16:47.208Z,15.04
2022-10-29T12:19:14.704Z,15.53
2022-10-29T12:21:41.977Z,15.48
2022-10-29T12:24:23.843Z,15.65
2022-10-29T12:27:18.959Z,15.56
2022-10-29T12:29:58.965Z,14.65
2022-10-29T12:32:33.929Z,14.46
2022-10-29T12:35:02.930Z,13.73
2022-10-29T12:37:49.697Z,13.46
2022-10-29T12:40:21.286Z,13.71
2022-10-29T12:42:49.874Z,13.46
2022-10-29T12:45:43.454Z,14.17
2022-10-29T12:48:34.742Z,13.70
2022-10-29T12:51:27.038Z,13.81
2022-10-29T12:54:11.164Z,14.29
2022-10-29T12:56:38.801Z,14.34
2022-10-29T12:59:36.575Z,14.68
2022-10-29T13:02:24.526Z,14.19
2022-10-29T13:05:27.646Z,13.95
2022-10-29T13:08:03.767Z,13.98
2022-10-29T13:10:34.091Z,14.42
2022-10-29T13:13:07.149Z,14.03
2022-10-29T13:15:42.170Z,13.68
2022-10-29T13:18:12.426Z,13.80
2022-10-29T13:20:42.689Z,14.03
2022-10-29T13:23:22.275Z,14.35
2022-10-29T13:26:08.634Z,14.25
2022-10-29T13:28:35.867Z,14.93
2022-10-29T13:31:06.447Z,14.60
2022-10-29T13:33:33.663Z,14.17
2022-10-29T13:36:05.415Z,14.20
2022-10-29T13:39:04.451Z,13.49
2022-10-29T13:42:03.362Z,13.66
2022-10-29T13:44:31.831Z,13.91
2022-10-29T13:47:24.445Z,14.35
2022-10-29T13:49:52.152Z,14.19
2022-10-29T13:52:21.278Z,13.84
2022-10-29T13:55:01.330Z,13.84
2022-10-29T13:57:38.788Z,13.81
2022-10-29T14:00:12.100Z,13.72
2022-10-29T14:02:42.749Z,13.56
2022-10-29T14:05:17.677Z,13.81
2022-10-29T14:08:00.705Z,13.38
2022-10-29T14:10:34.176Z,13.46
2022-10-29T14:13:13.952Z,13.36
2022-10-29T14:16:03.119Z,13.01
2022-10-29T14:18:37.456Z,13.40
2022-10-29T14:21:07.499Z,13.57
2022-10-29T14:23:35.174Z,13.35
2022-10-29T14:26:03.988Z,13.78
2022-10-29T14:28:32.836Z,13.59
2022-10-29T14:31:06.322Z,13.64
2022-10-29T14:33:37.595Z,13.16
2022-10-29T14:36:05.256Z,13.25
2022-10-29T14:38:38.047Z,13.31
2022-10-29T14:41:06.003Z,13.33
2022-10-29T14:43:35.054Z,13.80
2022-10-29T14:46:25.659Z,14.37
2022-10-29T14:48:58.302Z,14.32
2022-10-29T14:51:26.281Z,15.17
2022-10-29T14:54:00.513Z,15.50
2022-10-29T14:56:37.172Z,15.71
2022-10-29T14:59:18.973Z,15.63
2022-10-29T15:01:53.996Z,15.38
2022-10-29T15:04:30.763Z,15.54
2022-10-29T15:07:35.439Z,15.42
2022-10-29T15:10:16.858Z,14.92
2022-10-29T15:12:44.678Z,15.72
2022-10-29T15:15:19.010Z,15.34
2022-10-29T15:17:56.078Z,14.59
2022-10-29T15:20:39.091Z,14.92
2022-10-29T15:23:15.785Z,14.34
2022-10-29T15:25:44.880Z,14.66
2022-10-29T15:28:18.146Z,14.96
2022-10-29T15:30:46.753Z,15.19
2022-10-29T15:33:18.525Z,14.83
2022-10-29T15:35:51.859Z,15.16
2022-10-29T15:38:52.216Z,15.18
2022-10-29T15:41:20.473Z,15.48
2022-10-29T15:43:55.946Z,15.34
2022-10-29T15:46:25.709Z,15.20
2022-10-29T15:48:54.226Z,15.20
2022-10-29T15:51:26.315Z,15.23
2022-10-29T15:53:58.734Z,16.06
2022-10-29T15:56:26.449Z,15.79
2022-10-29T15:58:57.007Z,15.69
2022-10-29T16:01:26.927Z,15.99
2022-10-29T16:03:54.844Z,16.51
2022-10-29T16:06:22.597Z,16.71
2022-10-29T16:08:51.947Z,16.82
2022-10-29T16:11:20.888Z,16.68
2022-10-29T16:13:54.526Z,15.97
2022-10-29T16:16:25.150Z,16.11
2022-10-29T16:18:53.637Z,16.36
2022-10-29T16:21:23.253Z,16.10
2022-10-29T16:23:52.100Z,15.92
2022-10-29T16:26:24.517Z,15.73
2022-10-29T16:28:53.546Z,15.64
2022-10-29T16:31:32.134Z,15.74
2022-10-29T16:34:03.661Z,16.34
2022-10-29T16:36:31.018Z,14.73
2022-10-29T16:38:58.831Z,14.73
2022-10-29T16:41:26.861Z,15.16
2022-10-29T16:43:54.729Z,15.68
2022-10-29T16:46:22.640Z,15.89
2022-10-29T16:48:50.950Z,15.75
2022-10-29T16:51:19.092Z,15.41
2022-10-29T16:53:47.043Z,15.44
2022-10-29T16:56:14.740Z,15.40
2022-10-29T16:58:42.418Z,14.94
2022-10-29T17:01:10.949Z,15.11
2022-10-29T17:03:39.806Z,15.44
2022-10-29T17:06:09.749Z,14.78
2022-10-29T17:08:38.228Z,14.55
2022-10-29T17:11:10.068Z,14.68
2022-10-29T17:13:38.493Z,15.25
2022-10-29T17:16:07.991Z,14.80
2022-10-29T17:18:35.694Z,14.99
2022-10-29T17:21:04.025Z,14.66
2022-10-29T17:23:32.721Z,13.94
2022-10-29T17:26:01.000Z,13.60
2022-10-29T17:28:29.129Z,13.72
2022-10-29T17:30:57.531Z,13.86
2022-10-29T17:33:26.295Z,13.77
2022-10-29T17:36:04.968Z,13.42
2022-10-29T17:38:33.477Z,13.55
2022-10-29T17:41:01.218Z,13.57
2022-10-29T17:43:28.907Z,13.71
2022-10-29T17:45:56.827Z,13.73
2022-10-29T17:48:25.169Z,13.53
2022-10-29T17:51:01.444Z,13.94
2022-10-29T17:53:31.472Z,13.75
2022-10-29T17:55:59.767Z,13.77
2022-10-29T17:58:27.809Z,13.13
2022-10-29T18:00:56.160Z,13.73
2022-10-29T18:03:27.069Z,13.52
2022-10-29T18:06:01.054Z,13.54
2022-10-29T18:08:29.661Z,13.38
2022-10-29T18:11:11.300Z,13.15
2022-10-29T18:13:41.756Z,13.38
2022-10-29T18:16:13.086Z,13.42
2022-10-29T18:18:54.755Z,13.37
2022-10-29T18:21:33.144Z,13.34
2022-10-29T18:24:01.669Z,13.56
2022-10-29T18:26:32.963Z,13.56
2022-10-29T18:29:03.817Z,13.67
2022-10-29T18:31:32.225Z,13.54
2022-10-29T18:34:02.332Z,13.61
2022-10-29T18:36:30.511Z,13.72
2022-10-29T18:38:59.133Z,13.76
2022-10-29T18:41:27.006Z,13.78
2022-10-29T18:43:55.990Z,13.27
2022-10-29T18:46:23.367Z,13.71
2022-10-29T18:48:51.812Z,13.45
2022-10-29T18:51:28.803Z,13.75
2022-10-29T18:54:00.107Z,14.21
2022-10-29T18:56:29.433Z,13.40
2022-10-29T18:58:58.254Z,13.56
2022-10-29T19:01:30.697Z,13.46
2022-10-29T19:04:01.301Z,13.87
2022-10-29T19:06:31.605Z,13.63
2022-10-29T19:09:06.484Z,14.06
2022-10-29T19:11:34.825Z,14.41
2022-10-29T19:14:05.761Z,15.40
2022-10-29T19:16:33.974Z,15.04
2022-10-29T19:21:38.369Z,13.99
2022-10-29T19:24:07.523Z,14.64
2022-10-29T19:26:35.467Z,14.15
2022-10-29T19:29:04.184Z,14.22
2022-10-29T19:31:33.237Z,15.18
2022-10-29T19:34:02.536Z,14.23
2022-10-29T19:36:30.746Z,14.50
2022-10-29T19:39:00.782Z,14.80
2022-10-29T19:41:29.706Z,15.70
2022-10-29T19:44:01.594Z,14.81
2022-10-29T19:46:30.605Z,14.60
2022-10-29T19:48:58.583Z,14.16
2022-10-29T19:51:26.806Z,14.32
2022-10-29T19:53:57.647Z,13.75
2022-10-29T19:56:25.705Z,14.46
2022-10-29T19:58:53.323Z,14.24
2022-10-29T20:01:21.987Z,14.24
2022-10-29T20:03:50.002Z,14.09
2022-10-29T20:06:18.420Z,14.85
2022-10-29T20:08:46.304Z,14.26
2022-10-29T20:11:14.040Z,13.88
2022-10-29T20:13:42.170Z,13.64
2022-10-29T20:16:12.765Z,13.44
2022-10-29T20:18:41.055Z,13.68
2022-10-29T20:21:08.869Z,13.68
2022-10-29T20:23:36.475Z,13.36
2022-10-29T20:26:04.413Z,13.35
2022-10-29T20:28:32.835Z,13.41
2022-10-29T20:31:19.370Z,13.03
2022-10-29T20:33:57.108Z,13.32
2022-10-29T20:36:28.844Z,13.45
2022-10-29T20:38:56.942Z,14.12
2022-10-29T20:41:25.232Z,14.25
2022-10-29T20:43:59.211Z,14.39
2022-10-29T20:46:27.564Z,15.04
2022-10-29T20:48:55.317Z,15.43
2022-10-29T20:51:24.458Z,15.89
2022-10-29T20:53:53.050Z,16.02
2022-10-29T20:56:23.357Z,15.97
2022-10-29T20:58:50.752Z,15.81
2022-10-29T21:01:20.393Z,14.69
2022-10-29T21:03:50.277Z,15.31
2022-10-29T21:06:19.211Z,15.47
2022-10-29T21:08:47.762Z,15.14
2022-10-29T21:11:16.955Z,14.53
2022-10-29T21:13:45.368Z,14.36
2022-10-29T21:16:22.344Z,14.17
2022-10-29T21:18:53.060Z,14.47
2022-10-29T21:21:21.371Z,14.26
2022-10-29T21:23:48.975Z,14.96
2022-10-29T21:26:22.299Z,14.59
2022-10-29T21:28:51.203Z,14.14
2022-10-29T21:31:20.668Z,13.95
2022-10-29T21:33:51.960Z,13.82
2022-10-29T21:36:20.698Z,13.64
2022-10-29T21:38:48.775Z,13.54
2022-10-29T21:41:16.726Z,14.09
2022-10-29T21:43:44.614Z,14.12
2022-10-29T21:46:12.229Z,14.89
2022-10-29T21:48:39.884Z,15.24
2022-10-29T21:51:10.947Z,15.63
2022-10-29T21:53:39.272Z,14.33
2022-10-29T21:56:09.747Z,15.01
2022-10-29T21:58:37.592Z,13.73
2022-10-29T22:01:06.404Z,14.56
2022-10-29T22:03:35.817Z,14.83
2022-10-29T22:06:09.470Z,14.02
2022-10-29T22:08:38.303Z,13.66
2022-10-29T22:11:06.147Z,13.53
2022-10-29T22:13:34.415Z,13.41
2022-10-29T22:16:04.081Z,13.64
2022-10-29T22:18:32.026Z,13.38
2022-10-29T22:21:11.771Z,13.20
2022-10-29T22:23:58.694Z,13.16
2022-10-29T22:26:28.039Z,13.62
2022-10-29T22:28:56.015Z,13.36
2022-10-29T22:31:24.470Z,13.43
2022-10-29T22:33:52.688Z,13.61
2022-10-29T22:36:23.018Z,13.82
2022-10-29T22:38:54.792Z,13.66
2022-10-29T22:41:23.043Z,13.52
2022-10-29T22:43:50.458Z,13.77
2022-10-29T22:46:20.135Z,13.55
2022-10-29T22:48:48.168Z,13.32
2022-10-29T22:51:18.325Z,13.43
2022-10-29T22:53:45.953Z,13.10
2022-10-29T22:56:22.137Z,13.52
2022-10-29T22:58:49.658Z,13.41
2022-10-29T23:01:25.804Z,13.94
2022-10-29T23:03:53.999Z,13.49
2022-10-29T23:06:23.661Z,13.61
2022-10-29T23:08:53.083Z,13.89
2022-10-29T23:11:25.939Z,14.08
2022-10-29T23:13:55.948Z,14.05
2022-10-29T23:16:24.430Z,13.82
2022-10-29T23:18:55.030Z,13.71
2022-10-29T23:21:23.018Z,13.90
2022-10-29T23:23:50.617Z,14.29
2022-10-29T23:26:19.203Z,13.74
2022-10-29T23:28:47.836Z,14.07
2022-10-29T23:31:17.599Z,13.53
2022-10-29T23:33:50.469Z,13.18
2022-10-29T23:36:19.636Z,13.30
2022-10-29T23:38:47.063Z,13.59
2022-10-29T23:41:14.725Z,13.00
2022-10-29T23:43:42.454Z,13.04
2022-10-29T23:46:10.224Z,13.46
2022-10-29T23:48:37.604Z,12.86
2022-10-29T23:51:05.525Z,13.65
2022-10-29T23:53:33.338Z,13.54
2022-10-29T23:56:01.002Z,13.45
2022-10-29T23:58:29.010Z,13.72
